sensor_id;sensor_type;location;lat;lon;timestamp;temperature;humidity
21778;DHT22;11050;52.222;20.916;2022-11-15T00:00:54;6.00;99.90
21778;DHT22;11050;52.222;20.916;2022-11-15T00:03:25;6.00;99.90
21778;DHT22;11050;52.222;20.916;2022-11-15T00:05:52;6.10;99.90
21778;DHT22;11050;52.222;20.916;2022-11-15T00:08:19;6.10;99.90
21778;DHT22;11050;52.222;20.916;2022-11-15T00:10:55;6.10;99.90
21778;DHT22;11050;52.222;20.916;2022-11-15T00:13:22;6.10;99.90
21778;DHT22;11050;52.222;20.916;2022-11-15T00:15:48;6.00;99.90
21778;DHT22;11050;52.222;20.916;2022-11-15T00:18:14;6.10;99.90
21778;DHT22;11050;52.222;20.916;2022-11-15T00:20:41;6.00;99.90
21778;DHT22;11050;52.222;20.916;2022-11-15T00:23:07;6.00;99.90
21778;DHT22;11050;52.222;20.916;2022-11-15T00:25:33;6.00;99.90
21778;DHT22;11050;52.222;20.916;2022-11-15T00:28:00;6.00;99.90
21778;DHT22;11050;52.222;20.916;2022-11-15T00:30:26;6.00;99.90
21778;DHT22;11050;52.222;20.916;2022-11-15T00:32:53;6.00;99.90
21778;DHT22;11050;52.222;20.916;2022-11-15T00:35:19;6.00;99.90
21778;DHT22;11050;52.222;20.916;2022-11-15T00:37:46;6.00;99.90
21778;DHT22;11050;52.222;20.916;2022-11-15T00:40:13;6.00;99.90
21778;DHT22;11050;52.222;20.916;2022-11-15T00:42:40;6.00;99.90
21778;DHT22;11050;52.222;20.916;2022-11-15T00:45:07;6.00;99.90
21778;DHT22;11050;52.222;20.916;2022-11-15T00:47:33;6.00;99.90
21778;DHT22;11050;52.222;20.916;2022-11-15T00:49:59;6.00;99.90
21778;DHT22;11050;52.222;20.916;2022-11-15T00:52:25;6.00;99.90
21778;DHT22;11050;52.222;20.916;2022-11-15T00:54:50;6.00;99.90
21778;DHT22;11050;52.222;20.916;2022-11-15T00:57:16;6.00;99.90
21778;DHT22;11050;52.222;20.916;2022-11-15T00:59:42;6.00;99.90
21778;DHT22;11050;52.222;20.916;2022-11-15T01:02:08;6.00;99.90
21778;DHT22;11050;52.222;20.916;2022-11-15T01:04:33;6.00;99.90
21778;DHT22;11050;52.222;20.916;2022-11-15T01:06:59;6.00;99.90
21778;DHT22;11050;52.222;20.916;2022-11-15T01:09:25;6.00;99.90
21778;DHT22;11050;52.222;20.916;2022-11-15T01:11:50;6.00;99.90
21778;DHT22;11050;52.222;20.916;2022-11-15T01:14:17;5.90;99.90
21778;DHT22;11050;52.222;20.916;2022-11-15T01:16:43;5.90;99.90
21778;DHT22;11050;52.222;20.916;2022-11-15T01:19:09;5.90;99.90
21778;DHT22;11050;52.222;20.916;2022-11-15T01:21:34;5.90;99.90
21778;DHT22;11050;52.222;20.916;2022-11-15T01:24:00;5.90;99.90
21778;DHT22;11050;52.222;20.916;2022-11-15T01:26:26;5.90;99.90
21778;DHT22;11050;52.222;20.916;2022-11-15T01:28:52;5.90;99.90
21778;DHT22;11050;52.222;20.916;2022-11-15T01:31:20;5.90;99.90
21778;DHT22;11050;52.222;20.916;2022-11-15T01:33:47;5.90;99.90
21778;DHT22;11050;52.222;20.916;2022-11-15T01:36:17;5.90;99.90
21778;DHT22;11050;52.222;20.916;2022-11-15T01:38:44;5.90;99.90
21778;DHT22;11050;52.222;20.916;2022-11-15T01:41:25;5.90;99.90
21778;DHT22;11050;52.222;20.916;2022-11-15T01:43:55;5.90;99.90
21778;DHT22;11050;52.222;20.916;2022-11-15T01:49:02;5.90;99.90
21778;DHT22;11050;52.222;20.916;2022-11-15T01:51:36;5.90;99.90
21778;DHT22;11050;52.222;20.916;2022-11-15T01:54:10;5.90;99.90
21778;DHT22;11050;52.222;20.916;2022-11-15T01:56:45;5.90;99.90
21778;DHT22;11050;52.222;20.916;2022-11-15T01:59:15;5.90;99.90
21778;DHT22;11050;52.222;20.916;2022-11-15T02:01:41;5.90;99.90
21778;DHT22;11050;52.222;20.916;2022-11-15T02:04:12;5.90;99.90
21778;DHT22;11050;52.222;20.916;2022-11-15T02:06:42;5.90;99.90
21778;DHT22;11050;52.222;20.916;2022-11-15T02:09:10;5.90;99.90
21778;DHT22;11050;52.222;20.916;2022-11-15T02:11:37;5.90;99.90
21778;DHT22;11050;52.222;20.916;2022-11-15T02:14:03;5.80;99.90
21778;DHT22;11050;52.222;20.916;2022-11-15T02:17:15;5.80;99.90
21778;DHT22;11050;52.222;20.916;2022-11-15T02:28:48;5.80;99.90
21778;DHT22;11050;52.222;20.916;2022-11-15T02:31:35;5.80;99.90
21778;DHT22;11050;52.222;20.916;2022-11-15T02:37:42;5.80;99.90
21778;DHT22;11050;52.222;20.916;2022-11-15T02:40:41;5.80;99.90
21778;DHT22;11050;52.222;20.916;2022-11-15T02:43:21;5.80;99.90
21778;DHT22;11050;52.222;20.916;2022-11-15T02:46:22;5.80;99.90
21778;DHT22;11050;52.222;20.916;2022-11-15T02:49:30;5.80;99.90
21778;DHT22;11050;52.222;20.916;2022-11-15T02:51:58;5.80;99.90
21778;DHT22;11050;52.222;20.916;2022-11-15T02:54:26;5.80;99.90
21778;DHT22;11050;52.222;20.916;2022-11-15T02:57:02;5.80;99.90
21778;DHT22;11050;52.222;20.916;2022-11-15T02:59:47;5.80;99.90
21778;DHT22;11050;52.222;20.916;2022-11-15T03:02:42;5.80;99.90
21778;DHT22;11050;52.222;20.916;2022-11-15T03:08:29;5.70;99.90
21778;DHT22;11050;52.222;20.916;2022-11-15T03:11:16;5.70;99.90
21778;DHT22;11050;52.222;20.916;2022-11-15T03:14:07;5.70;99.90
21778;DHT22;11050;52.222;20.916;2022-11-15T03:19:44;5.70;99.90
21778;DHT22;11050;52.222;20.916;2022-11-15T03:22:16;5.70;99.90
21778;DHT22;11050;52.222;20.916;2022-11-15T03:24:47;5.70;99.90
21778;DHT22;11050;52.222;20.916;2022-11-15T03:27:22;5.70;99.90
21778;DHT22;11050;52.222;20.916;2022-11-15T03:29:56;5.70;99.90
21778;DHT22;11050;52.222;20.916;2022-11-15T03:32:30;5.70;99.90
21778;DHT22;11050;52.222;20.916;2022-11-15T03:35:09;5.70;99.90
21778;DHT22;11050;52.222;20.916;2022-11-15T03:38:01;5.70;99.90
21778;DHT22;11050;52.222;20.916;2022-11-15T03:41:01;5.70;99.90
21778;DHT22;11050;52.222;20.916;2022-11-15T03:43:41;5.70;99.90
21778;DHT22;11050;52.222;20.916;2022-11-15T03:46:23;5.70;99.90
21778;DHT22;11050;52.222;20.916;2022-11-15T03:49:02;5.70;99.90
21778;DHT22;11050;52.222;20.916;2022-11-15T03:51:34;5.70;99.90
21778;DHT22;11050;52.222;20.916;2022-11-15T03:54:05;5.70;99.90
21778;DHT22;11050;52.222;20.916;2022-11-15T03:56:31;5.70;99.90
21778;DHT22;11050;52.222;20.916;2022-11-15T03:58:57;5.70;99.90
21778;DHT22;11050;52.222;20.916;2022-11-15T04:01:23;5.70;99.90
21778;DHT22;11050;52.222;20.916;2022-11-15T04:03:49;5.70;99.90
21778;DHT22;11050;52.222;20.916;2022-11-15T04:06:14;5.70;99.90
21778;DHT22;11050;52.222;20.916;2022-11-15T04:08:40;5.70;99.90
21778;DHT22;11050;52.222;20.916;2022-11-15T04:11:06;5.70;99.90
21778;DHT22;11050;52.222;20.916;2022-11-15T04:13:32;5.70;99.90
21778;DHT22;11050;52.222;20.916;2022-11-15T04:15:57;5.70;99.90
21778;DHT22;11050;52.222;20.916;2022-11-15T04:18:23;5.60;99.90
21778;DHT22;11050;52.222;20.916;2022-11-15T04:20:49;5.60;99.90
21778;DHT22;11050;52.222;20.916;2022-11-15T04:23:33;5.70;99.90
21778;DHT22;11050;52.222;20.916;2022-11-15T04:26:20;5.70;99.90
21778;DHT22;11050;52.222;20.916;2022-11-15T04:28:47;5.70;99.90
21778;DHT22;11050;52.222;20.916;2022-11-15T04:31:32;5.60;99.90
21778;DHT22;11050;52.222;20.916;2022-11-15T04:33:58;5.60;99.90
21778;DHT22;11050;52.222;20.916;2022-11-15T04:36:24;5.60;99.90
21778;DHT22;11050;52.222;20.916;2022-11-15T04:39:08;5.60;99.90
21778;DHT22;11050;52.222;20.916;2022-11-15T04:41:34;5.60;99.90
21778;DHT22;11050;52.222;20.916;2022-11-15T04:44:00;5.60;99.90
21778;DHT22;11050;52.222;20.916;2022-11-15T04:46:26;5.60;99.90
21778;DHT22;11050;52.222;20.916;2022-11-15T04:48:52;5.60;99.90
21778;DHT22;11050;52.222;20.916;2022-11-15T04:51:19;5.60;99.90
21778;DHT22;11050;52.222;20.916;2022-11-15T04:53:45;5.60;99.90
21778;DHT22;11050;52.222;20.916;2022-11-15T04:56:11;5.60;99.90
21778;DHT22;11050;52.222;20.916;2022-11-15T04:58:36;5.60;99.90
21778;DHT22;11050;52.222;20.916;2022-11-15T05:01:13;5.60;99.90
21778;DHT22;11050;52.222;20.916;2022-11-15T05:03:41;5.50;99.90
21778;DHT22;11050;52.222;20.916;2022-11-15T05:06:25;5.50;99.90
21778;DHT22;11050;52.222;20.916;2022-11-15T05:08:51;5.50;99.90
21778;DHT22;11050;52.222;20.916;2022-11-15T05:11:17;5.50;99.90
21778;DHT22;11050;52.222;20.916;2022-11-15T05:13:43;5.50;99.90
21778;DHT22;11050;52.222;20.916;2022-11-15T05:16:09;5.40;99.90
21778;DHT22;11050;52.222;20.916;2022-11-15T05:18:35;5.40;99.90
21778;DHT22;11050;52.222;20.916;2022-11-15T05:21:09;5.40;99.90
21778;DHT22;11050;52.222;20.916;2022-11-15T05:23:37;5.40;99.90
21778;DHT22;11050;52.222;20.916;2022-11-15T05:26:05;5.30;99.90
21778;DHT22;11050;52.222;20.916;2022-11-15T05:28:32;5.30;99.90
21778;DHT22;11050;52.222;20.916;2022-11-15T05:31:06;5.30;99.90
21778;DHT22;11050;52.222;20.916;2022-11-15T05:33:40;5.30;99.90
21778;DHT22;11050;52.222;20.916;2022-11-15T05:36:31;5.30;99.90
21778;DHT22;11050;52.222;20.916;2022-11-15T05:39:02;5.30;99.90
21778;DHT22;11050;52.222;20.916;2022-11-15T05:41:46;5.30;99.90
21778;DHT22;11050;52.222;20.916;2022-11-15T05:44:19;5.30;99.90
21778;DHT22;11050;52.222;20.916;2022-11-15T05:46:49;5.30;99.90
21778;DHT22;11050;52.222;20.916;2022-11-15T05:49:20;5.30;99.90
21778;DHT22;11050;52.222;20.916;2022-11-15T05:51:51;5.30;99.90
21778;DHT22;11050;52.222;20.916;2022-11-15T05:54:20;5.30;99.90
21778;DHT22;11050;52.222;20.916;2022-11-15T05:56:48;5.30;99.90
21778;DHT22;11050;52.222;20.916;2022-11-15T05:59:15;5.30;99.90
21778;DHT22;11050;52.222;20.916;2022-11-15T06:01:41;5.30;99.90
21778;DHT22;11050;52.222;20.916;2022-11-15T06:04:07;5.20;99.90
21778;DHT22;11050;52.222;20.916;2022-11-15T06:06:32;5.20;99.90
21778;DHT22;11050;52.222;20.916;2022-11-15T06:08:58;5.20;99.90
21778;DHT22;11050;52.222;20.916;2022-11-15T06:11:24;5.20;99.90
21778;DHT22;11050;52.222;20.916;2022-11-15T06:13:50;5.20;99.90
21778;DHT22;11050;52.222;20.916;2022-11-15T06:16:15;5.20;99.90
21778;DHT22;11050;52.222;20.916;2022-11-15T06:18:41;5.20;99.90
21778;DHT22;11050;52.222;20.916;2022-11-15T06:21:07;5.20;99.90
21778;DHT22;11050;52.222;20.916;2022-11-15T06:23:33;5.30;99.90
21778;DHT22;11050;52.222;20.916;2022-11-15T06:26:01;5.20;99.90
21778;DHT22;11050;52.222;20.916;2022-11-15T06:28:32;5.20;99.90
21778;DHT22;11050;52.222;20.916;2022-11-15T06:31:05;5.20;99.90
21778;DHT22;11050;52.222;20.916;2022-11-15T06:33:32;5.20;99.90
21778;DHT22;11050;52.222;20.916;2022-11-15T06:36:06;5.20;99.90
21778;DHT22;11050;52.222;20.916;2022-11-15T06:38:34;5.20;99.90
21778;DHT22;11050;52.222;20.916;2022-11-15T06:41:06;5.20;99.90
21778;DHT22;11050;52.222;20.916;2022-11-15T06:43:34;5.20;99.90
21778;DHT22;11050;52.222;20.916;2022-11-15T06:46:01;5.20;99.90
21778;DHT22;11050;52.222;20.916;2022-11-15T06:48:29;5.10;99.90
21778;DHT22;11050;52.222;20.916;2022-11-15T06:50:58;5.10;99.90
21778;DHT22;11050;52.222;20.916;2022-11-15T06:53:26;5.20;99.90
21778;DHT22;11050;52.222;20.916;2022-11-15T06:55:52;5.20;99.90
21778;DHT22;11050;52.222;20.916;2022-11-15T06:58:20;5.20;99.90
21778;DHT22;11050;52.222;20.916;2022-11-15T07:00:46;5.10;99.90
21778;DHT22;11050;52.222;20.916;2022-11-15T07:03:12;5.10;99.90
21778;DHT22;11050;52.222;20.916;2022-11-15T07:05:38;5.20;99.90
21778;DHT22;11050;52.222;20.916;2022-11-15T07:08:04;5.10;99.90
21778;DHT22;11050;52.222;20.916;2022-11-15T07:10:30;5.20;99.90
21778;DHT22;11050;52.222;20.916;2022-11-15T07:12:55;5.20;99.90
21778;DHT22;11050;52.222;20.916;2022-11-15T07:15:25;5.20;99.90
21778;DHT22;11050;52.222;20.916;2022-11-15T07:17:51;5.20;99.90
21778;DHT22;11050;52.222;20.916;2022-11-15T07:20:18;5.20;99.90
21778;DHT22;11050;52.222;20.916;2022-11-15T07:22:44;5.20;99.90
21778;DHT22;11050;52.222;20.916;2022-11-15T07:25:13;5.10;99.90
21778;DHT22;11050;52.222;20.916;2022-11-15T07:27:38;5.10;99.90
21778;DHT22;11050;52.222;20.916;2022-11-15T07:30:05;5.10;99.90
21778;DHT22;11050;52.222;20.916;2022-11-15T07:32:31;5.10;99.90
21778;DHT22;11050;52.222;20.916;2022-11-15T07:34:56;5.10;99.90
21778;DHT22;11050;52.222;20.916;2022-11-15T07:37:22;5.10;99.90
21778;DHT22;11050;52.222;20.916;2022-11-15T07:39:48;5.20;99.90
21778;DHT22;11050;52.222;20.916;2022-11-15T07:42:14;5.20;99.90
21778;DHT22;11050;52.222;20.916;2022-11-15T07:44:58;5.20;99.90
21778;DHT22;11050;52.222;20.916;2022-11-15T07:47:24;5.20;99.90
21778;DHT22;11050;52.222;20.916;2022-11-15T07:49:49;5.20;99.90
21778;DHT22;11050;52.222;20.916;2022-11-15T07:52:15;5.20;99.90
21778;DHT22;11050;52.222;20.916;2022-11-15T07:54:41;5.30;99.90
21778;DHT22;11050;52.222;20.916;2022-11-15T07:57:07;5.30;99.90
21778;DHT22;11050;52.222;20.916;2022-11-15T07:59:34;5.30;99.90
21778;DHT22;11050;52.222;20.916;2022-11-15T08:02:01;5.40;99.90
21778;DHT22;11050;52.222;20.916;2022-11-15T08:04:27;5.40;99.90
21778;DHT22;11050;52.222;20.916;2022-11-15T08:06:53;5.40;99.90
21778;DHT22;11050;52.222;20.916;2022-11-15T08:09:18;5.40;99.90
21778;DHT22;11050;52.222;20.916;2022-11-15T08:11:44;5.50;99.90
21778;DHT22;11050;52.222;20.916;2022-11-15T08:14:10;5.50;99.90
21778;DHT22;11050;52.222;20.916;2022-11-15T08:16:36;5.50;99.90
21778;DHT22;11050;52.222;20.916;2022-11-15T08:19:01;5.50;99.90
21778;DHT22;11050;52.222;20.916;2022-11-15T08:21:27;5.50;99.90
21778;DHT22;11050;52.222;20.916;2022-11-15T08:23:53;5.60;99.90
21778;DHT22;11050;52.222;20.916;2022-11-15T08:26:18;5.60;99.90
21778;DHT22;11050;52.222;20.916;2022-11-15T08:28:44;5.60;99.90
21778;DHT22;11050;52.222;20.916;2022-11-15T08:31:14;5.60;99.90
21778;DHT22;11050;52.222;20.916;2022-11-15T08:33:43;5.60;99.90
21778;DHT22;11050;52.222;20.916;2022-11-15T08:36:15;5.60;99.90
21778;DHT22;11050;52.222;20.916;2022-11-15T08:38:42;5.60;99.90
21778;DHT22;11050;52.222;20.916;2022-11-15T08:41:26;5.60;99.90
21778;DHT22;11050;52.222;20.916;2022-11-15T08:43:56;5.60;99.90
21778;DHT22;11050;52.222;20.916;2022-11-15T08:46:22;5.60;99.90
21778;DHT22;11050;52.222;20.916;2022-11-15T08:48:47;5.70;99.90
21778;DHT22;11050;52.222;20.916;2022-11-15T08:51:13;5.70;99.90
21778;DHT22;11050;52.222;20.916;2022-11-15T08:53:39;5.80;99.90
21778;DHT22;11050;52.222;20.916;2022-11-15T08:56:10;5.80;99.90
21778;DHT22;11050;52.222;20.916;2022-11-15T08:58:37;5.80;99.90
21778;DHT22;11050;52.222;20.916;2022-11-15T09:01:04;5.80;99.90
21778;DHT22;11050;52.222;20.916;2022-11-15T09:03:30;5.80;99.90
21778;DHT22;11050;52.222;20.916;2022-11-15T09:05:58;5.90;99.90
21778;DHT22;11050;52.222;20.916;2022-11-15T09:08:26;5.90;99.90
21778;DHT22;11050;52.222;20.916;2022-11-15T09:10:55;5.90;99.90
21778;DHT22;11050;52.222;20.916;2022-11-15T09:13:21;5.90;99.90
21778;DHT22;11050;52.222;20.916;2022-11-15T09:15:47;6.00;99.90
21778;DHT22;11050;52.222;20.916;2022-11-15T09:18:13;6.00;99.90
21778;DHT22;11050;52.222;20.916;2022-11-15T09:20:39;6.00;99.90
21778;DHT22;11050;52.222;20.916;2022-11-15T09:23:06;6.00;99.90
21778;DHT22;11050;52.222;20.916;2022-11-15T09:25:32;6.00;99.90
21778;DHT22;11050;52.222;20.916;2022-11-15T09:27:58;6.00;99.90
21778;DHT22;11050;52.222;20.916;2022-11-15T09:30:25;6.10;99.90
21778;DHT22;11050;52.222;20.916;2022-11-15T09:32:51;6.10;99.90
21778;DHT22;11050;52.222;20.916;2022-11-15T09:35:17;6.10;99.90
21778;DHT22;11050;52.222;20.916;2022-11-15T09:37:43;6.10;99.90
21778;DHT22;11050;52.222;20.916;2022-11-15T09:40:12;6.20;99.90
21778;DHT22;11050;52.222;20.916;2022-11-15T09:42:58;6.10;99.90
21778;DHT22;11050;52.222;20.916;2022-11-15T09:48:55;6.20;99.90
21778;DHT22;11050;52.222;20.916;2022-11-15T09:51:43;6.30;99.90
21778;DHT22;11050;52.222;20.916;2022-11-15T09:54:37;6.30;99.90
21778;DHT22;11050;52.222;20.916;2022-11-15T09:57:14;6.30;99.90
21778;DHT22;11050;52.222;20.916;2022-11-15T10:05:03;6.30;99.90
21778;DHT22;11050;52.222;20.916;2022-11-15T10:07:51;6.30;99.90
21778;DHT22;11050;52.222;20.916;2022-11-15T10:10:43;6.30;99.90
21778;DHT22;11050;52.222;20.916;2022-11-15T10:13:28;6.40;99.90
21778;DHT22;11050;52.222;20.916;2022-11-15T10:16:08;6.40;99.90
21778;DHT22;11050;52.222;20.916;2022-11-15T10:22:11;6.40;99.90
21778;DHT22;11050;52.222;20.916;2022-11-15T10:24:43;6.40;99.90
21778;DHT22;11050;52.222;20.916;2022-11-15T10:27:15;6.40;99.90
21778;DHT22;11050;52.222;20.916;2022-11-15T10:29:49;6.50;99.90
21778;DHT22;11050;52.222;20.916;2022-11-15T10:32:18;6.50;99.90
21778;DHT22;11050;52.222;20.916;2022-11-15T10:34:46;6.50;99.90
21778;DHT22;11050;52.222;20.916;2022-11-15T10:37:13;6.50;99.90
21778;DHT22;11050;52.222;20.916;2022-11-15T10:39:39;6.50;99.90
21778;DHT22;11050;52.222;20.916;2022-11-15T10:42:26;6.60;99.90
21778;DHT22;11050;52.222;20.916;2022-11-15T10:44:54;6.60;99.90
21778;DHT22;11050;52.222;20.916;2022-11-15T10:47:26;6.70;99.90
21778;DHT22;11050;52.222;20.916;2022-11-15T10:49:59;6.70;99.90
21778;DHT22;11050;52.222;20.916;2022-11-15T10:52:29;6.70;99.90
21778;DHT22;11050;52.222;20.916;2022-11-15T10:55:19;6.80;99.90
21778;DHT22;11050;52.222;20.916;2022-11-15T10:57:54;6.70;99.90
21778;DHT22;11050;52.222;20.916;2022-11-15T11:00:31;6.70;99.90
21778;DHT22;11050;52.222;20.916;2022-11-15T11:03:05;6.80;99.90
21778;DHT22;11050;52.222;20.916;2022-11-15T11:08:32;6.90;99.90
21778;DHT22;11050;52.222;20.916;2022-11-15T11:11:01;6.90;99.90
21778;DHT22;11050;52.222;20.916;2022-11-15T11:13:30;6.90;99.90
21778;DHT22;11050;52.222;20.916;2022-11-15T11:21:55;7.00;99.90
21778;DHT22;11050;52.222;20.916;2022-11-15T11:30:07;7.10;99.90
21778;DHT22;11050;52.222;20.916;2022-11-15T11:47:31;7.20;99.90
21778;DHT22;11050;52.222;20.916;2022-11-15T11:50:11;7.20;99.90
21778;DHT22;11050;52.222;20.916;2022-11-15T11:55:27;7.30;99.90
21778;DHT22;11050;52.222;20.916;2022-11-15T12:01:25;7.30;99.90
21778;DHT22;11050;52.222;20.916;2022-11-15T12:07:03;7.30;99.90
21778;DHT22;11050;52.222;20.916;2022-11-15T12:09:57;7.40;99.90
21778;DHT22;11050;52.222;20.916;2022-11-15T12:12:44;7.40;99.90
21778;DHT22;11050;52.222;20.916;2022-11-15T12:15:19;7.40;99.90
21778;DHT22;11050;52.222;20.916;2022-11-15T12:17:49;7.40;99.90
21778;DHT22;11050;52.222;20.916;2022-11-15T12:20:24;7.40;99.90
21778;DHT22;11050;52.222;20.916;2022-11-15T12:23:05;7.40;99.90
21778;DHT22;11050;52.222;20.916;2022-11-15T12:25:50;7.40;99.90
21778;DHT22;11050;52.222;20.916;2022-11-15T12:28:37;7.40;99.90
21778;DHT22;11050;52.222;20.916;2022-11-15T12:33:47;7.40;99.90
21778;DHT22;11050;52.222;20.916;2022-11-15T12:41:32;7.40;99.90
21778;DHT22;11050;52.222;20.916;2022-11-15T12:44:00;7.40;99.90
21778;DHT22;11050;52.222;20.916;2022-11-15T13:04:47;7.30;99.90
21778;DHT22;11050;52.222;20.916;2022-11-15T13:12:54;7.20;99.90
21778;DHT22;11050;52.222;20.916;2022-11-15T13:18:28;7.20;99.90
21778;DHT22;11050;52.222;20.916;2022-11-15T13:21:04;7.20;99.90
21778;DHT22;11050;52.222;20.916;2022-11-15T13:24:17;7.20;99.90
21778;DHT22;11050;52.222;20.916;2022-11-15T13:26:42;7.20;99.90
21778;DHT22;11050;52.222;20.916;2022-11-15T13:29:16;7.20;99.90
21778;DHT22;11050;52.222;20.916;2022-11-15T13:31:44;7.20;99.90
21778;DHT22;11050;52.222;20.916;2022-11-15T13:34:30;7.20;99.90
21778;DHT22;11050;52.222;20.916;2022-11-15T13:37:01;7.20;99.90
21778;DHT22;11050;52.222;20.916;2022-11-15T13:39:34;7.20;99.90
21778;DHT22;11050;52.222;20.916;2022-11-15T13:42:02;7.20;99.90
21778;DHT22;11050;52.222;20.916;2022-11-15T13:44:32;7.10;99.90
21778;DHT22;11050;52.222;20.916;2022-11-15T13:47:14;7.10;99.90
21778;DHT22;11050;52.222;20.916;2022-11-15T13:49:48;7.10;99.90
21778;DHT22;11050;52.222;20.916;2022-11-15T13:52:14;7.10;99.90
21778;DHT22;11050;52.222;20.916;2022-11-15T13:54:50;7.00;99.90
21778;DHT22;11050;52.222;20.916;2022-11-15T13:57:36;7.00;99.90
21778;DHT22;11050;52.222;20.916;2022-11-15T14:00:25;7.00;99.90
21778;DHT22;11050;52.222;20.916;2022-11-15T14:06:05;7.00;99.90
21778;DHT22;11050;52.222;20.916;2022-11-15T14:08:41;7.00;99.90
21778;DHT22;11050;52.222;20.916;2022-11-15T14:11:22;7.00;99.90
21778;DHT22;11050;52.222;20.916;2022-11-15T14:16:46;6.90;99.90
21778;DHT22;11050;52.222;20.916;2022-11-15T14:19:34;6.90;99.90
21778;DHT22;11050;52.222;20.916;2022-11-15T14:22:30;6.90;99.90
21778;DHT22;11050;52.222;20.916;2022-11-15T14:25:13;6.80;99.90
21778;DHT22;11050;52.222;20.916;2022-11-15T14:30:49;6.80;99.90
21778;DHT22;11050;52.222;20.916;2022-11-15T14:33:25;6.80;99.90
21778;DHT22;11050;52.222;20.916;2022-11-15T14:35:56;6.80;99.90
21778;DHT22;11050;52.222;20.916;2022-11-15T14:38:24;6.80;99.90
21778;DHT22;11050;52.222;20.916;2022-11-15T14:40:51;6.80;99.90
21778;DHT22;11050;52.222;20.916;2022-11-15T14:43:17;6.80;99.90
21778;DHT22;11050;52.222;20.916;2022-11-15T14:45:43;6.80;99.90
21778;DHT22;11050;52.222;20.916;2022-11-15T14:48:08;6.80;99.90
21778;DHT22;11050;52.222;20.916;2022-11-15T14:50:35;6.80;99.90
21778;DHT22;11050;52.222;20.916;2022-11-15T14:53:01;6.70;99.90
21778;DHT22;11050;52.222;20.916;2022-11-15T14:55:30;6.70;99.90
21778;DHT22;11050;52.222;20.916;2022-11-15T14:58:00;6.70;99.90
21778;DHT22;11050;52.222;20.916;2022-11-15T15:00:28;6.70;99.90
21778;DHT22;11050;52.222;20.916;2022-11-15T15:02:55;6.70;99.90
21778;DHT22;11050;52.222;20.916;2022-11-15T15:05:32;6.70;99.90
21778;DHT22;11050;52.222;20.916;2022-11-15T15:07:59;6.70;99.90
21778;DHT22;11050;52.222;20.916;2022-11-15T15:10:30;6.60;99.90
21778;DHT22;11050;52.222;20.916;2022-11-15T15:12:57;6.70;99.90
21778;DHT22;11050;52.222;20.916;2022-11-15T15:15:32;6.70;99.90
21778;DHT22;11050;52.222;20.916;2022-11-15T15:18:00;6.60;99.90
21778;DHT22;11050;52.222;20.916;2022-11-15T15:20:26;6.60;99.90
21778;DHT22;11050;52.222;20.916;2022-11-15T15:22:52;6.60;99.90
21778;DHT22;11050;52.222;20.916;2022-11-15T15:25:28;6.60;99.90
21778;DHT22;11050;52.222;20.916;2022-11-15T15:28:01;6.60;99.90
21778;DHT22;11050;52.222;20.916;2022-11-15T15:30:29;6.60;99.90
21778;DHT22;11050;52.222;20.916;2022-11-15T15:32:56;6.60;99.90
21778;DHT22;11050;52.222;20.916;2022-11-15T15:35:29;6.60;99.90
21778;DHT22;11050;52.222;20.916;2022-11-15T15:37:57;6.60;99.90
21778;DHT22;11050;52.222;20.916;2022-11-15T15:40:24;6.60;99.90
21778;DHT22;11050;52.222;20.916;2022-11-15T15:42:51;6.50;99.90
21778;DHT22;11050;52.222;20.916;2022-11-15T15:45:18;6.50;99.90
21778;DHT22;11050;52.222;20.916;2022-11-15T15:47:45;6.50;99.90
21778;DHT22;11050;52.222;20.916;2022-11-15T15:50:32;6.50;99.90
21778;DHT22;11050;52.222;20.916;2022-11-15T15:53:00;6.50;99.90
21778;DHT22;11050;52.222;20.916;2022-11-15T15:55:27;6.50;99.90
21778;DHT22;11050;52.222;20.916;2022-11-15T15:57:54;6.50;99.90
21778;DHT22;11050;52.222;20.916;2022-11-15T16:00:22;6.50;99.90
21778;DHT22;11050;52.222;20.916;2022-11-15T16:02:50;6.50;99.90
21778;DHT22;11050;52.222;20.916;2022-11-15T16:05:17;6.40;99.90
21778;DHT22;11050;52.222;20.916;2022-11-15T16:07:44;6.40;99.90
21778;DHT22;11050;52.222;20.916;2022-11-15T16:10:35;6.40;99.90
21778;DHT22;11050;52.222;20.916;2022-11-15T16:13:02;6.40;99.90
21778;DHT22;11050;52.222;20.916;2022-11-15T16:15:30;6.40;99.90
21778;DHT22;11050;52.222;20.916;2022-11-15T16:17:58;6.30;99.90
21778;DHT22;11050;52.222;20.916;2022-11-15T16:23:12;6.20;99.90
21778;DHT22;11050;52.222;20.916;2022-11-15T16:25:49;6.20;99.90
21778;DHT22;11050;52.222;20.916;2022-11-15T16:28:22;6.20;99.90
21778;DHT22;11050;52.222;20.916;2022-11-15T16:31:22;6.20;99.90
21778;DHT22;11050;52.222;20.916;2022-11-15T16:33:48;6.20;99.90
21778;DHT22;11050;52.222;20.916;2022-11-15T16:36:22;6.20;99.90
21778;DHT22;11050;52.222;20.916;2022-11-15T16:38:49;6.10;99.90
21778;DHT22;11050;52.222;20.916;2022-11-15T16:41:16;6.10;99.90
21778;DHT22;11050;52.222;20.916;2022-11-15T16:43:47;6.10;99.90
21778;DHT22;11050;52.222;20.916;2022-11-15T16:46:21;6.10;99.90
21778;DHT22;11050;52.222;20.916;2022-11-15T16:48:51;6.10;99.90
21778;DHT22;11050;52.222;20.916;2022-11-15T16:51:21;6.10;99.90
21778;DHT22;11050;52.222;20.916;2022-11-15T16:53:47;6.10;99.90
21778;DHT22;11050;52.222;20.916;2022-11-15T16:58:46;6.10;99.90
21778;DHT22;11050;52.222;20.916;2022-11-15T17:01:22;6.10;99.90
21778;DHT22;11050;52.222;20.916;2022-11-15T17:03:54;6.10;99.90
21778;DHT22;11050;52.222;20.916;2022-11-15T17:06:21;6.10;99.90
21778;DHT22;11050;52.222;20.916;2022-11-15T17:08:48;6.10;99.90
21778;DHT22;11050;52.222;20.916;2022-11-15T17:11:16;6.10;99.90
21778;DHT22;11050;52.222;20.916;2022-11-15T17:13:43;6.10;99.90
21778;DHT22;11050;52.222;20.916;2022-11-15T17:16:13;6.10;99.90
21778;DHT22;11050;52.222;20.916;2022-11-15T17:18:40;6.10;99.90
21778;DHT22;11050;52.222;20.916;2022-11-15T17:21:17;6.10;99.90
21778;DHT22;11050;52.222;20.916;2022-11-15T17:23:45;6.10;99.90
21778;DHT22;11050;52.222;20.916;2022-11-15T17:26:13;6.10;99.90
21778;DHT22;11050;52.222;20.916;2022-11-15T17:28:40;6.10;99.90
21778;DHT22;11050;52.222;20.916;2022-11-15T17:31:11;6.10;99.90
21778;DHT22;11050;52.222;20.916;2022-11-15T17:33:39;6.10;99.90
21778;DHT22;11050;52.222;20.916;2022-11-15T17:36:08;6.10;99.90
21778;DHT22;11050;52.222;20.916;2022-11-15T17:38:36;6.10;99.90
21778;DHT22;11050;52.222;20.916;2022-11-15T17:41:13;6.00;99.90
21778;DHT22;11050;52.222;20.916;2022-11-15T17:43:40;6.00;99.90
21778;DHT22;11050;52.222;20.916;2022-11-15T17:46:27;6.00;99.90
21778;DHT22;11050;52.222;20.916;2022-11-15T17:48:54;6.00;99.90
21778;DHT22;11050;52.222;20.916;2022-11-15T17:51:21;6.00;99.90
21778;DHT22;11050;52.222;20.916;2022-11-15T17:53:48;6.00;99.90
21778;DHT22;11050;52.222;20.916;2022-11-15T17:56:19;6.00;99.90